Time;durP1;ratioP1;P1;durP2;ratioP2;P2;SDS_P1;SDS_P2;PMS_P1;PMS_P2;Temp;Humidity;BMP_temperature;BMP_pressure;BME280_temperature;BME280_humidity;BME280_pressure;Samples;Min_cycle;Max_cycle;Signal;HPM_P1;HPM_P2
2021/12/10 00:00:43;;;;;;;58.10;27.10;;;4.70;99.90;;;;;;5051824;28;20060;-73
2021/12/10 00:03:17;;;;;;;55.80;27.23;;;4.70;99.90;;;;;;5035800;28;20045;-73
2021/12/10 00:05:48;;;;;;;53.53;27.10;;;4.70;99.90;;;;;;5051774;28;20037;-71
2021/12/10 00:08:14;;;;;;;59.97;27.55;;;4.70;99.90;;;;;;5052317;28;20526;-71
2021/12/10 00:10:46;;;;;;;56.05;26.95;;;4.80;99.90;;;;;;5052270;28;20045;-71
2021/12/10 00:13:12;;;;;;;66.32;29.48;;;4.80;99.90;;;;;;5051602;28;20080;-71
2021/12/10 00:15:40;;;;;;;53.25;25.98;;;4.80;99.90;;;;;;5052050;28;20554;-74
2021/12/10 00:18:10;;;;;;;51.83;26.25;;;4.80;99.90;;;;;;5052397;28;20043;-71
2021/12/10 00:20:37;;;;;;;56.33;25.90;;;4.80;99.90;;;;;;5052306;28;20080;-71
2021/12/10 00:23:10;;;;;;;50.90;25.45;;;4.80;99.90;;;;;;5055512;28;20045;-72
2021/12/10 00:25:40;;;;;;;54.17;26.27;;;4.80;99.90;;;;;;5055127;28;20045;-75
2021/12/10 00:28:17;;;;;;;54.50;24.65;;;4.80;99.90;;;;;;5056646;28;20091;-72
2021/12/10 00:31:04;;;;;;;45.22;23.33;;;4.80;99.90;;;;;;5055748;28;20048;-75
2021/12/10 00:33:36;;;;;;;46.03;24.60;;;4.80;99.90;;;;;;5055831;28;20060;-73
2021/12/10 00:36:02;;;;;;;47.00;23.65;;;4.80;99.90;;;;;;5055439;28;20576;-70
2021/12/10 00:38:29;;;;;;;47.55;23.50;;;4.80;99.90;;;;;;5055615;28;20037;-71
2021/12/10 00:40:56;;;;;;;50.53;23.50;;;4.80;99.90;;;;;;5055688;28;20040;-71
2021/12/10 00:43:22;;;;;;;49.35;24.90;;;4.80;99.90;;;;;;5055830;28;20037;-71
2021/12/10 00:45:48;;;;;;;48.72;24.05;;;4.80;99.90;;;;;;5055753;28;20056;-71
2021/12/10 00:48:14;;;;;;;48.22;21.67;;;4.80;99.90;;;;;;5055707;28;20049;-73
2021/12/10 00:50:45;;;;;;;43.70;23.30;;;4.80;99.90;;;;;;5055216;28;20048;-71
2021/12/10 00:53:11;;;;;;;46.75;24.27;;;4.80;99.90;;;;;;5055592;28;20045;-70
2021/12/10 00:55:38;;;;;;;47.72;23.63;;;4.80;99.90;;;;;;5055223;28;20047;-74
2021/12/10 00:58:05;;;;;;;48.90;22.30;;;4.80;99.90;;;;;;5055502;28;20045;-72
2021/12/10 01:00:42;;;;;;;47.00;22.90;;;4.80;99.90;;;;;;5055183;28;20471;-71
2021/12/10 01:03:10;;;;;;;51.03;23.42;;;4.80;99.90;;;;;;5055050;28;20036;-70
2021/12/10 01:05:39;;;;;;;44.45;22.83;;;4.80;99.90;;;;;;5055367;28;20048;-71
2021/12/10 01:08:05;;;;;;;42.58;23.08;;;4.80;99.90;;;;;;5055287;28;20118;-71
2021/12/10 01:10:39;;;;;;;46.58;23.58;;;4.80;99.90;;;;;;5055085;28;20429;-71
2021/12/10 01:13:10;;;;;;;38.17;21.65;;;4.80;99.90;;;;;;5054897;28;20051;-71
2021/12/10 01:16:07;;;;;;;42.95;21.40;;;4.70;99.90;;;;;;5054749;28;20124;-71
2021/12/10 01:24:18;;;;;;;42.55;19.33;;;4.70;99.90;;;;;;5054580;28;20048;-68
2021/12/10 01:29:18;;;;;;;38.88;19.83;;;4.70;99.90;;;;;;5054724;28;20472;-71
2021/12/10 01:31:45;;;;;;;35.05;19.65;;;4.70;99.90;;;;;;5054641;28;20084;-71
2021/12/10 01:34:11;;;;;;;34.53;18.67;;;4.70;99.90;;;;;;5053263;28;20080;-74
2021/12/10 01:36:39;;;;;;;36.40;19.77;;;4.70;99.90;;;;;;5054238;28;20368;-71
2021/12/10 01:39:08;;;;;;;37.22;19.52;;;4.70;99.90;;;;;;5054840;28;20127;-70
2021/12/10 01:41:37;;;;;;;39.42;18.33;;;4.70;99.90;;;;;;5054200;28;20045;-71
2021/12/10 01:44:14;;;;;;;33.88;18.98;;;4.70;99.90;;;;;;5054532;28;20483;-71
2021/12/10 01:46:42;;;;;;;38.05;17.98;;;4.60;99.90;;;;;;5054429;28;20041;-71
2021/12/10 01:49:09;;;;;;;36.63;16.50;;;4.60;99.90;;;;;;5053559;28;20056;-71
2021/12/10 01:51:38;;;;;;;34.58;17.10;;;4.60;99.90;;;;;;5054249;28;20055;-73
2021/12/10 01:54:10;;;;;;;33.38;17.52;;;4.60;99.90;;;;;;5054803;28;20048;-71
2021/12/10 01:56:38;;;;;;;36.47;16.67;;;4.60;99.90;;;;;;5054045;28;20037;-74
2021/12/10 01:59:09;;;;;;;33.38;16.92;;;4.50;99.90;;;;;;5054080;28;20119;-72
2021/12/10 02:01:41;;;;;;;36.95;17.85;;;4.50;99.90;;;;;;5053680;28;20067;-71
2021/12/10 02:04:10;;;;;;;35.17;16.92;;;4.50;99.90;;;;;;5054441;28;20037;-74
2021/12/10 02:06:37;;;;;;;32.95;16.77;;;4.50;99.90;;;;;;5054101;28;20485;-72
2021/12/10 02:09:04;;;;;;;36.40;17.27;;;4.50;99.90;;;;;;5053742;28;20040;-71
2021/12/10 02:11:30;;;;;;;27.23;15.23;;;4.50;99.90;;;;;;5054229;28;20179;-72
2021/12/10 02:13:57;;;;;;;29.00;15.23;;;4.50;99.90;;;;;;5053814;28;20127;-70
2021/12/10 02:16:23;;;;;;;32.13;15.95;;;4.50;99.90;;;;;;5036994;28;20455;-72
2021/12/10 02:18:49;;;;;;;32.88;16.52;;;4.50;99.90;;;;;;5053639;28;20686;-75
2021/12/10 02:21:22;;;;;;;33.75;16.30;;;4.50;99.90;;;;;;5053830;28;20044;-71
2021/12/10 02:23:57;;;;;;;40.75;16.70;;;4.50;99.90;;;;;;5053933;28;20041;-73
2021/12/10 02:26:26;;;;;;;30.63;16.42;;;4.50;99.90;;;;;;5053663;28;20479;-71
2021/12/10 02:28:52;;;;;;;32.03;16.38;;;4.50;99.90;;;;;;5053389;28;20131;-74
2021/12/10 02:31:18;;;;;;;28.48;15.48;;;4.50;99.90;;;;;;5053934;28;20040;-72
2021/12/10 02:33:44;;;;;;;34.40;16.65;;;4.50;99.90;;;;;;5053450;28;20041;-73
2021/12/10 02:36:12;;;;;;;30.98;16.08;;;4.50;99.90;;;;;;5053664;28;20060;-73
2021/12/10 02:38:45;;;;;;;31.27;16.08;;;4.50;99.90;;;;;;5053169;28;20083;-71
2021/12/10 02:41:11;;;;;;;31.80;15.95;;;4.50;99.90;;;;;;5053005;28;20045;-70
2021/12/10 02:43:38;;;;;;;35.65;16.73;;;4.50;99.90;;;;;;5053379;28;20071;-71
2021/12/10 02:46:04;;;;;;;32.70;16.88;;;4.50;99.90;;;;;;5052862;28;20072;-73
2021/12/10 02:48:30;;;;;;;31.77;16.08;;;4.50;99.90;;;;;;5053479;28;20069;-71
2021/12/10 02:50:58;;;;;;;38.88;16.90;;;4.50;99.90;;;;;;5053189;28;20494;-71
2021/12/10 02:53:28;;;;;;;34.03;16.60;;;4.50;99.90;;;;;;5053292;28;20037;-69
2021/12/10 02:55:56;;;;;;;29.83;16.27;;;4.50;99.90;;;;;;5052402;28;20438;-71
2021/12/10 02:58:22;;;;;;;35.38;17.13;;;4.50;99.90;;;;;;5053805;28;20045;-74
2021/12/10 03:00:55;;;;;;;30.67;17.55;;;4.50;99.90;;;;;;5053188;28;20036;-71
2021/12/10 03:03:21;;;;;;;31.13;16.45;;;4.50;99.90;;;;;;5053047;28;20504;-72
2021/12/10 03:05:47;;;;;;;30.40;17.70;;;4.50;99.90;;;;;;5053121;28;20045;-71
2021/12/10 03:08:15;;;;;;;32.63;18.60;;;4.50;99.90;;;;;;5052467;28;20044;-75
2021/12/10 03:10:41;;;;;;;36.97;19.05;;;4.50;99.90;;;;;;5052413;28;20048;-71
2021/12/10 03:13:08;;;;;;;40.15;19.67;;;4.50;99.90;;;;;;5052635;28;20036;-71
2021/12/10 03:15:35;;;;;;;38.08;19.98;;;4.50;99.90;;;;;;5052630;28;20080;-71
2021/12/10 03:18:03;;;;;;;35.65;19.88;;;4.50;99.90;;;;;;5053001;28;20047;-74
2021/12/10 03:20:30;;;;;;;36.50;19.05;;;4.50;99.90;;;;;;5052605;28;20041;-71
2021/12/10 03:22:58;;;;;;;32.80;19.75;;;4.50;99.90;;;;;;5052453;28;20045;-70
2021/12/10 03:25:24;;;;;;;39.03;20.48;;;4.40;99.90;;;;;;5052915;28;20083;-70
2021/12/10 03:27:50;;;;;;;41.28;19.70;;;4.50;99.90;;;;;;5052870;28;20080;-75
2021/12/10 03:30:21;;;;;;;33.50;19.20;;;4.40;99.90;;;;;;5052956;28;20045;-71
2021/12/10 03:32:48;;;;;;;38.67;19.77;;;4.40;99.90;;;;;;5035881;28;20045;-74
2021/12/10 03:35:25;;;;;;;33.03;19.20;;;4.40;99.90;;;;;;5052406;28;20399;-75
2021/12/10 03:37:51;;;;;;;34.10;19.00;;;4.40;99.90;;;;;;5052108;28;20044;-72
2021/12/10 03:40:19;;;;;;;36.15;19.75;;;4.40;99.90;;;;;;5052444;28;20047;-69
2021/12/10 03:42:47;;;;;;;36.13;20.73;;;4.40;99.90;;;;;;5035900;28;20044;-69
2021/12/10 03:45:14;;;;;;;35.17;20.60;;;4.30;99.90;;;;;;5052695;28;20055;-70
2021/12/10 03:47:41;;;;;;;40.38;19.45;;;4.30;99.90;;;;;;5051856;28;20458;-72
2021/12/10 03:50:09;;;;;;;33.47;19.23;;;4.30;99.90;;;;;;5052059;28;20041;-69
2021/12/10 03:52:35;;;;;;;32.25;18.55;;;4.20;99.90;;;;;;5052373;28;20045;-69
2021/12/10 03:55:01;;;;;;;33.25;18.55;;;4.20;99.90;;;;;;5052224;28;20045;-69
2021/12/10 03:57:27;;;;;;;32.67;18.30;;;4.20;99.90;;;;;;5052056;28;20045;-71
2021/12/10 03:59:53;;;;;;;32.10;18.25;;;4.20;99.90;;;;;;5069127;28;20159;-70
2021/12/10 04:02:20;;;;;;;29.08;17.45;;;4.20;99.90;;;;;;5051964;28;20041;-71
2021/12/10 04:04:48;;;;;;;31.00;18.95;;;4.10;99.90;;;;;;5051453;28;20048;-70
2021/12/10 04:07:22;;;;;;;32.22;17.85;;;4.10;99.90;;;;;;5052676;28;20549;-71
2021/12/10 04:09:49;;;;;;;30.38;17.17;;;4.10;99.90;;;;;;5052410;28;20178;-74
2021/12/10 04:12:17;;;;;;;31.63;17.98;;;4.00;99.90;;;;;;5051981;28;20098;-75
2021/12/10 04:14:44;;;;;;;31.17;17.55;;;4.00;99.90;;;;;;5052066;28;20435;-71
2021/12/10 04:17:10;;;;;;;33.13;17.13;;;3.90;99.90;;;;;;5051840;28;20106;-75
2021/12/10 04:19:37;;;;;;;33.00;17.60;;;3.90;99.90;;;;;;5052482;28;20041;-71
2021/12/10 04:22:07;;;;;;;31.58;17.85;;;3.80;99.90;;;;;;5035277;28;20040;-70
2021/12/10 04:24:35;;;;;;;34.13;17.85;;;3.80;99.90;;;;;;5052174;28;20047;-73
2021/12/10 04:27:07;;;;;;;31.50;17.95;;;3.70;99.90;;;;;;5052226;28;20081;-71
2021/12/10 04:29:32;;;;;;;30.60;17.58;;;3.70;99.90;;;;;;5051782;28;20044;-71
2021/12/10 04:32:00;;;;;;;37.65;19.05;;;3.60;99.90;;;;;;5051715;28;20049;-71
2021/12/10 04:34:26;;;;;;;33.35;18.23;;;3.50;99.90;;;;;;5034723;28;20053;-71
2021/12/10 04:36:55;;;;;;;30.13;18.70;;;3.50;99.90;;;;;;5052390;28;20052;-71
2021/12/10 04:39:21;;;;;;;31.48;19.27;;;3.50;99.90;;;;;;5052196;28;20045;-71
2021/12/10 04:41:48;;;;;;;32.50;19.30;;;3.40;99.90;;;;;;5051672;28;20072;-74
2021/12/10 04:44:13;;;;;;;34.38;19.73;;;3.40;99.90;;;;;;5051602;28;20048;-71
2021/12/10 04:46:39;;;;;;;35.40;20.13;;;3.30;99.90;;;;;;5051777;28;20040;-71
2021/12/10 04:49:12;;;;;;;32.08;19.77;;;3.30;99.90;;;;;;5051809;28;20036;-70
2021/12/10 04:51:41;;;;;;;37.95;19.75;;;3.30;99.90;;;;;;5052223;28;20084;-71
2021/12/10 04:54:10;;;;;;;35.08;19.98;;;3.20;99.90;;;;;;5051787;28;20076;-74
2021/12/10 04:56:36;;;;;;;34.17;19.88;;;3.20;99.90;;;;;;5051620;28;20045;-70
2021/12/10 04:59:04;;;;;;;36.28;19.90;;;3.20;99.90;;;;;;5034560;28;20167;-71
2021/12/10 05:01:30;;;;;;;35.90;20.27;;;3.10;99.90;;;;;;5051438;28;20044;-74
2021/12/10 05:03:56;;;;;;;37.13;20.08;;;3.10;99.90;;;;;;5051896;28;20047;-71
2021/12/10 05:06:22;;;;;;;32.05;19.10;;;3.10;99.90;;;;;;5051777;28;20040;-71
2021/12/10 05:08:48;;;;;;;33.63;19.27;;;3.00;99.90;;;;;;5052515;28;20123;-70
2021/12/10 05:11:14;;;;;;;36.00;19.42;;;3.00;99.90;;;;;;5055040;28;20051;-71
2021/12/10 05:13:43;;;;;;;30.77;18.13;;;3.00;99.90;;;;;;5038119;28;20045;-73
2021/12/10 05:16:09;;;;;;;33.03;20.00;;;2.90;99.90;;;;;;5038641;28;20037;-73
2021/12/10 05:18:39;;;;;;;33.75;18.80;;;2.90;99.90;;;;;;5055261;28;20419;-71
2021/12/10 05:21:06;;;;;;;29.05;18.35;;;2.90;99.90;;;;;;5055306;28;20041;-72
2021/12/10 05:23:32;;;;;;;30.75;17.58;;;2.80;99.90;;;;;;5054794;28;20041;-71
2021/12/10 05:25:58;;;;;;;28.45;17.05;;;2.80;99.90;;;;;;5054539;28;20052;-71
2021/12/10 05:28:24;;;;;;;28.25;16.98;;;2.80;99.90;;;;;;5052814;28;20036;-75
2021/12/10 05:30:54;;;;;;;28.33;16.90;;;2.80;99.90;;;;;;5054373;28;20091;-71
2021/12/10 05:33:20;;;;;;;30.80;17.70;;;2.80;99.90;;;;;;5054597;28;20092;-71
2021/12/10 05:35:47;;;;;;;24.67;16.05;;;2.80;99.90;;;;;;5054943;28;20076;-72
2021/12/10 05:38:17;;;;;;;28.70;16.45;;;2.70;99.90;;;;;;5054539;28;20087;-70
2021/12/10 05:40:43;;;;;;;29.63;17.50;;;2.70;99.90;;;;;;5054275;28;20044;-71
2021/12/10 05:43:09;;;;;;;30.45;16.63;;;2.70;99.90;;;;;;5054598;28;20386;-73
2021/12/10 05:45:35;;;;;;;26.02;16.45;;;2.70;99.90;;;;;;5038477;28;20037;-71
2021/12/10 05:48:00;;;;;;;29.50;15.65;;;2.60;99.90;;;;;;5054356;28;20084;-72
2021/12/10 05:50:28;;;;;;;27.02;15.85;;;2.60;99.90;;;;;;5054895;28;20037;-72
2021/12/10 05:52:54;;;;;;;28.15;16.13;;;2.60;99.90;;;;;;5054384;28;20055;-70
2021/12/10 05:55:20;;;;;;;25.88;16.02;;;2.50;99.90;;;;;;5053977;28;20049;-75
2021/12/10 05:57:46;;;;;;;25.80;15.95;;;2.50;99.90;;;;;;5053874;28;20083;-71
2021/12/10 06:00:24;;;;;;;29.48;16.45;;;2.50;99.90;;;;;;5054812;28;20079;-75
2021/12/10 06:02:50;;;;;;;27.17;15.65;;;2.40;99.90;;;;;;5054099;28;20045;-73
2021/12/10 06:05:16;;;;;;;25.70;15.60;;;2.40;99.90;;;;;;5054185;28;20521;-71
2021/12/10 06:07:42;;;;;;;25.38;15.15;;;2.40;99.90;;;;;;5053931;28;20049;-70
2021/12/10 06:10:10;;;;;;;25.73;15.90;;;2.30;99.90;;;;;;5054056;28;20502;-74
2021/12/10 06:12:36;;;;;;;24.92;15.00;;;2.30;99.90;;;;;;5054047;28;20490;-71
2021/12/10 06:15:04;;;;;;;25.58;15.68;;;2.30;99.90;;;;;;5037260;28;20090;-71
2021/12/10 06:17:30;;;;;;;22.55;15.05;;;2.20;99.90;;;;;;5053947;28;20114;-74
2021/12/10 06:19:56;;;;;;;24.20;14.75;;;2.20;99.90;;;;;;5053360;28;20539;-73
2021/12/10 06:22:21;;;;;;;24.63;15.48;;;2.20;99.90;;;;;;5052780;28;20044;-71
2021/12/10 06:24:47;;;;;;;24.42;14.52;;;2.20;99.90;;;;;;5053657;28;20043;-71
2021/12/10 06:27:13;;;;;;;24.92;15.77;;;2.20;99.90;;;;;;5053816;28;20037;-71
2021/12/10 06:29:41;;;;;;;26.70;15.48;;;2.10;99.90;;;;;;5053874;28;20151;-72
2021/12/10 06:32:09;;;;;;;22.08;14.40;;;2.10;99.90;;;;;;5053853;28;20037;-71
2021/12/10 06:34:34;;;;;;;24.23;14.27;;;2.10;99.90;;;;;;5053105;28;20426;-71
2021/12/10 06:37:00;;;;;;;25.75;14.90;;;2.00;99.90;;;;;;5036772;28;20463;-71
2021/12/10 06:39:26;;;;;;;23.98;15.25;;;2.10;99.90;;;;;;5053836;28;20041;-71
2021/12/10 06:41:53;;;;;;;22.33;13.80;;;2.00;99.90;;;;;;5053523;28;20037;-71
2021/12/10 06:44:20;;;;;;;24.23;15.15;;;2.00;99.90;;;;;;5053353;28;20072;-74
2021/12/10 06:46:47;;;;;;;23.20;14.95;;;2.00;99.90;;;;;;5053175;28;20045;-70
2021/12/10 06:49:13;;;;;;;25.75;14.73;;;1.90;99.90;;;;;;5038069;28;20033;-69
2021/12/10 06:51:39;;;;;;;25.98;15.38;;;1.90;99.90;;;;;;5052589;28;20052;-72
2021/12/10 06:54:05;;;;;;;25.05;13.48;;;1.90;99.90;;;;;;5053580;28;20048;-72
2021/12/10 06:56:33;;;;;;;24.08;14.93;;;1.90;99.90;;;;;;5053344;28;20045;-68
2021/12/10 06:58:59;;;;;;;26.08;13.70;;;1.90;99.90;;;;;;5053049;28;20049;-68
2021/12/10 07:01:31;;;;;;;24.08;13.68;;;1.90;99.90;;;;;;5036358;28;20032;-69
2021/12/10 07:03:59;;;;;;;24.50;14.30;;;1.80;99.90;;;;;;5036311;28;20535;-69
2021/12/10 07:06:27;;;;;;;26.48;14.23;;;1.80;99.90;;;;;;5053390;28;20045;-69
2021/12/10 07:08:54;;;;;;;22.73;13.57;;;1.80;99.90;;;;;;5052688;28;20036;-70
2021/12/10 07:11:22;;;;;;;19.92;13.25;;;1.80;99.90;;;;;;5053313;28;20282;-69
2021/12/10 07:13:50;;;;;;;23.02;12.93;;;1.80;99.90;;;;;;5052776;28;20041;-69
2021/12/10 07:16:18;;;;;;;24.13;12.95;;;1.70;99.90;;;;;;5052660;28;20383;-69
2021/12/10 07:18:44;;;;;;;21.40;12.88;;;1.70;99.90;;;;;;5051876;28;20072;-69
2021/12/10 07:21:10;;;;;;;22.75;12.70;;;1.70;99.90;;;;;;5052881;28;20068;-69
2021/12/10 07:23:37;;;;;;;20.75;12.32;;;1.70;99.90;;;;;;5036387;28;20037;-68
2021/12/10 07:26:04;;;;;;;20.50;12.45;;;1.60;99.90;;;;;;5052820;28;20063;-72
2021/12/10 07:28:31;;;;;;;25.75;13.05;;;1.70;99.90;;;;;;5052678;28;20056;-72
2021/12/10 07:30:57;;;;;;;21.73;11.68;;;1.60;99.90;;;;;;5051836;28;20097;-71
2021/12/10 07:33:23;;;;;;;21.58;12.88;;;1.60;99.90;;;;;;5051974;28;20048;-71
2021/12/10 07:35:50;;;;;;;22.15;12.90;;;1.60;99.90;;;;;;5052914;28;20060;-71
2021/12/10 07:38:17;;;;;;;21.13;12.02;;;1.60;99.90;;;;;;5052183;28;20045;-72
2021/12/10 07:40:43;;;;;;;22.52;12.60;;;1.60;99.90;;;;;;5052889;28;22054;-71
2021/12/10 07:43:09;;;;;;;23.55;11.82;;;1.60;99.90;;;;;;5052515;28;20083;-71
2021/12/10 07:45:36;;;;;;;21.08;11.88;;;1.60;99.90;;;;;;5034648;28;20051;-71
2021/12/10 07:48:08;;;;;;;20.45;11.30;;;1.60;99.90;;;;;;5052041;28;20049;-71
2021/12/10 07:50:37;;;;;;;21.52;11.15;;;1.60;99.90;;;;;;5052264;28;20497;-71
2021/12/10 07:53:04;;;;;;;24.98;12.32;;;1.60;99.90;;;;;;5052371;28;20037;-71
2021/12/10 07:55:34;;;;;;;20.73;11.55;;;1.60;99.90;;;;;;5036026;28;20037;-72
2021/12/10 07:58:00;;;;;;;;;;;1.60;99.90;;;;;;5052728;28;20053;-71
2021/12/10 08:00:29;;;;;;;20.73;11.00;;;1.60;99.90;;;;;;5051855;28;19917;-71
2021/12/10 08:02:54;;;;;;;21.33;11.70;;;1.60;99.90;;;;;;5052583;28;20052;-71
2021/12/10 08:05:22;;;;;;;20.35;11.60;;;1.60;99.90;;;;;;5052464;28;20041;-71
2021/12/10 08:07:50;;;;;;;19.60;11.50;;;1.60;99.90;;;;;;5052050;28;20098;-71
2021/12/10 08:10:16;;;;;;;24.15;12.43;;;1.50;99.90;;;;;;5035569;28;20132;-71
2021/12/10 08:12:42;;;;;;;21.33;11.20;;;1.50;99.90;;;;;;5051958;28;20067;-69
2021/12/10 08:15:09;;;;;;;21.50;12.07;;;1.60;99.90;;;;;;5051842;28;20041;-69
2021/12/10 08:17:35;;;;;;;22.65;11.88;;;1.50;99.90;;;;;;5052091;28;20036;-70
2021/12/10 08:20:04;;;;;;;19.90;12.15;;;1.50;99.90;;;;;;5035719;28;20032;-69
2021/12/10 08:22:30;;;;;;;20.13;11.73;;;1.50;99.90;;;;;;5035156;28;20096;-71
2021/12/10 08:24:56;;;;;;;24.67;11.50;;;1.50;99.90;;;;;;5052277;28;20080;-69
2021/12/10 08:27:22;;;;;;;20.13;11.43;;;1.50;99.90;;;;;;5051799;28;20037;-69
2021/12/10 08:29:48;;;;;;;22.55;12.40;;;1.50;99.90;;;;;;5052112;28;20522;-72
2021/12/10 08:32:19;;;;;;;19.80;11.85;;;1.50;99.90;;;;;;5052046;28;20084;-69
2021/12/10 08:34:45;;;;;;;22.30;11.88;;;1.60;99.90;;;;;;5051385;28;20056;-69
2021/12/10 08:37:11;;;;;;;21.77;11.73;;;1.60;99.90;;;;;;5051572;28;20049;-69
2021/12/10 08:39:37;;;;;;;18.88;11.90;;;1.70;99.90;;;;;;5051697;28;20033;-69
2021/12/10 08:42:03;;;;;;;21.48;11.38;;;1.70;99.90;;;;;;5034658;28;20487;-69
2021/12/10 08:44:30;;;;;;;18.55;11.35;;;1.70;99.90;;;;;;5055491;28;20075;-69
2021/12/10 08:46:57;;;;;;;24.05;11.20;;;1.70;99.90;;;;;;5055350;28;20048;-68
2021/12/10 08:49:23;;;;;;;25.98;11.98;;;1.80;99.90;;;;;;5055592;28;20537;-68
2021/12/10 08:51:53;;;;;;;20.88;11.68;;;1.80;99.90;;;;;;5055545;28;20510;-68
2021/12/10 08:54:22;;;;;;;22.63;12.23;;;1.90;99.90;;;;;;5055677;28;20123;-68
2021/12/10 08:56:48;;;;;;;17.30;11.40;;;1.90;99.90;;;;;;5054753;28;20041;-69
2021/12/10 08:59:14;;;;;;;20.48;11.10;;;1.90;99.90;;;;;;5055746;28;20048;-71
2021/12/10 09:01:44;;;;;;;21.40;11.18;;;1.90;99.90;;;;;;5055295;28;20379;-72
2021/12/10 09:04:12;;;;;;;18.15;11.10;;;2.00;99.90;;;;;;5055115;28;20507;-69
2021/12/10 09:06:40;;;;;;;18.80;10.63;;;2.00;99.90;;;;;;5055543;28;20064;-69
2021/12/10 09:09:11;;;;;;;21.77;11.27;;;2.10;99.90;;;;;;5055964;28;20514;-70
2021/12/10 09:11:41;;;;;;;19.42;10.98;;;2.10;99.90;;;;;;5055233;28;20383;-68
2021/12/10 09:14:08;;;;;;;19.90;11.18;;;2.20;99.90;;;;;;5055705;28;20425;-69
2021/12/10 09:16:36;;;;;;;20.15;10.75;;;2.20;99.90;;;;;;5054880;28;20115;-70
2021/12/10 09:19:05;;;;;;;20.52;10.85;;;2.20;99.90;;;;;;5054895;28;20428;-69
2021/12/10 09:21:32;;;;;;;20.27;11.00;;;2.20;99.90;;;;;;5054559;28;20045;-70
2021/12/10 09:24:03;;;;;;;17.73;10.15;;;2.30;99.90;;;;;;5037954;28;20051;-70
2021/12/10 09:26:32;;;;;;;19.38;10.10;;;2.40;99.90;;;;;;5054582;28;20037;-71
2021/12/10 09:28:59;;;;;;;18.40;10.05;;;2.40;99.90;;;;;;5054422;28;20040;-69
2021/12/10 09:31:25;;;;;;;23.20;10.13;;;2.40;99.90;;;;;;5054943;28;20040;-73
2021/12/10 09:33:56;;;;;;;17.33;10.48;;;2.50;99.90;;;;;;5054322;28;20053;-72
2021/12/10 09:36:22;;;;;;;16.08;9.90;;;2.50;99.90;;;;;;5053458;28;20084;-72
2021/12/10 09:38:49;;;;;;;18.55;10.68;;;2.60;99.90;;;;;;5053979;28;20471;-71
2021/12/10 09:41:17;;;;;;;22.63;10.23;;;2.80;99.90;;;;;;5053496;28;20130;-70
2021/12/10 09:43:43;;;;;;;16.38;9.50;;;2.90;99.90;;;;;;5053346;28;20183;-73
2021/12/10 09:46:09;;;;;;;19.67;10.02;;;3.00;99.90;;;;;;5053670;28;20037;-73
2021/12/10 09:48:35;;;;;;;13.85;9.45;;;3.00;99.90;;;;;;5053672;28;20142;-70
2021/12/10 09:51:09;;;;;;;17.95;9.23;;;3.00;99.90;;;;;;5053146;28;20503;-70
2021/12/10 09:53:36;;;;;;;18.08;9.32;;;3.00;99.90;;;;;;5036749;28;20479;-71
2021/12/10 09:56:04;;;;;;;14.57;9.40;;;3.00;99.90;;;;;;5052944;28;20491;-71
2021/12/10 09:58:30;;;;;;;16.08;9.23;;;3.10;99.90;;;;;;5053561;28;20095;-72
2021/12/10 10:01:09;;;;;;;15.55;8.93;;;3.10;99.90;;;;;;5053054;28;20041;-69
2021/12/10 10:03:38;;;;;;;17.65;9.05;;;3.20;99.90;;;;;;5053520;28;20083;-70
2021/12/10 10:06:06;;;;;;;15.15;7.55;;;3.30;99.90;;;;;;5053453;28;20613;-69
2021/12/10 10:08:33;;;;;;;15.07;8.25;;;3.40;99.90;;;;;;5051991;28;20518;-70
2021/12/10 10:11:10;;;;;;;13.88;7.97;;;3.40;99.90;;;;;;5035618;28;20053;-72
2021/12/10 10:13:38;;;;;;;14.25;8.20;;;3.50;99.90;;;;;;5052899;28;20099;-69
2021/12/10 10:16:05;;;;;;;19.05;8.25;;;3.60;99.90;;;;;;5052138;28;20051;-71
2021/12/10 10:18:33;;;;;;;15.65;7.63;;;3.60;99.90;;;;;;5053239;28;20045;-70
2021/12/10 10:21:06;;;;;;;13.13;8.13;;;3.70;99.90;;;;;;5053002;28;20072;-72
2021/12/10 10:23:31;;;;;;;11.95;7.50;;;3.80;99.90;;;;;;5053029;28;20049;-70
2021/12/10 10:26:01;;;;;;;14.30;7.30;;;4.00;99.90;;;;;;5052921;28;20075;-70
2021/12/10 10:28:27;;;;;;;12.63;7.28;;;4.40;99.90;;;;;;5051735;28;20154;-70
2021/12/10 10:31:02;;;;;;;12.75;7.30;;;4.90;99.90;;;;;;5052724;28;20163;-75
2021/12/10 10:33:31;;;;;;;13.25;7.50;;;5.20;99.90;;;;;;5052304;28;20383;-70
2021/12/10 10:36:01;;;;;;;12.25;7.25;;;5.50;99.90;;;;;;5052522;28;20041;-74
2021/12/10 10:38:27;;;;;;;11.65;7.15;;;5.50;99.90;;;;;;5051951;28;20049;-71
2021/12/10 10:41:09;;;;;;;11.98;7.20;;;5.70;99.90;;;;;;5052215;28;20072;-71
2021/12/10 10:43:36;;;;;;;9.85;6.70;;;6.00;99.90;;;;;;5052563;28;20388;-72
2021/12/10 10:46:03;;;;;;;13.43;6.65;;;6.00;99.90;;;;;;5052046;28;20052;-71
2021/12/10 10:48:29;;;;;;;10.85;6.15;;;5.70;99.90;;;;;;5052545;28;20075;-71
2021/12/10 10:51:00;;;;;;;12.35;6.03;;;5.60;99.90;;;;;;5052514;28;20076;-71
2021/12/10 10:53:30;;;;;;;10.15;5.65;;;5.60;99.90;;;;;;5052455;28;20123;-71
2021/12/10 10:55:58;;;;;;;;;;;5.70;99.90;;;;;;5052797;28;20048;-73
2021/12/10 10:58:30;;;;;;;12.10;6.55;;;5.60;99.90;;;;;;5051461;28;20359;-71
2021/12/10 11:01:15;;;;;;;10.13;5.78;;;5.40;99.90;;;;;;5051819;28;20493;-73
2021/12/10 11:03:51;;;;;;;11.63;5.40;;;5.30;99.90;;;;;;5051754;28;20047;-71
2021/12/10 11:06:24;;;;;;;13.13;5.78;;;5.20;99.90;;;;;;5052067;28;20246;-71
2021/12/10 11:08:53;;;;;;;8.68;5.50;;;5.20;99.90;;;;;;5050461;28;20048;-71
2021/12/10 11:11:28;;;;;;;8.80;5.43;;;5.20;99.90;;;;;;5051595;28;20150;-71
2021/12/10 11:14:13;;;;;;;12.52;5.15;;;5.50;99.90;;;;;;5052105;28;20040;-71
2021/12/10 11:16:41;;;;;;;10.57;5.00;;;5.80;99.90;;;;;;5051990;28;20484;-71
2021/12/10 11:19:13;;;;;;;11.38;4.55;;;5.80;99.90;;;;;;5051926;28;20049;-71
2021/12/10 11:22:17;;;;;;;7.97;5.05;;;5.80;99.90;;;;;;5051330;28;20391;-70
2021/12/10 11:24:51;;;;;;;8.27;4.63;;;5.80;99.90;;;;;;5013417;28;20052;-70
2021/12/10 11:27:17;;;;;;;9.88;4.50;;;6.00;99.90;;;;;;4994651;28;20507;-72
2021/12/10 11:29:50;;;;;;;10.10;5.00;;;6.20;99.90;;;;;;4996053;28;20053;-70
2021/12/10 11:32:25;;;;;;;9.05;4.60;;;6.60;99.90;;;;;;5031679;28;20137;-72
2021/12/10 11:34:57;;;;;;;6.10;4.00;;;6.90;99.90;;;;;;5031524;28;20072;-70
2021/12/10 11:37:41;;;;;;;8.10;4.20;;;7.00;99.90;;;;;;5031759;28;20056;-70
2021/12/10 11:40:40;;;;;;;9.82;4.40;;;7.30;99.90;;;;;;5031497;28;20042;-70
2021/12/10 11:48:50;;;;;;;8.98;3.92;;;8.10;99.90;;;;;;5030955;28;20053;-74
2021/12/10 11:51:22;;;;;;;8.25;4.30;;;8.40;99.90;;;;;;5031772;28;20068;-72
2021/12/10 11:54:00;;;;;;;8.43;3.70;;;8.50;99.90;;;;;;5031566;28;20037;-71
2021/12/10 11:56:40;;;;;;;7.38;3.88;;;8.20;99.90;;;;;;5067712;28;20059;-71
2021/12/10 11:59:16;;;;;;;7.22;3.38;;;7.90;99.90;;;;;;5031226;28;20124;-71
2021/12/10 12:01:47;;;;;;;8.10;3.40;;;7.80;99.90;;;;;;5047923;28;20469;-75
2021/12/10 12:04:31;;;;;;;7.00;3.58;;;7.80;99.90;;;;;;5033959;28;20060;-73
2021/12/10 12:07:29;;;;;;;8.65;3.42;;;8.00;99.90;;;;;;5044998;28;20044;-71
2021/12/10 12:10:08;;;;;;;7.30;3.17;;;8.30;99.90;;;;;;5042279;28;20041;-71
2021/12/10 12:12:40;;;;;;;8.27;3.30;;;8.50;99.90;;;;;;5042602;28;20037;-71
2021/12/10 12:15:16;;;;;;;10.85;3.35;;;8.60;99.90;;;;;;5055832;28;20033;-73
2021/12/10 12:17:51;;;;;;;8.82;3.45;;;8.50;99.90;;;;;;5041049;28;20387;-71
2021/12/10 12:20:34;;;;;;;8.38;3.63;;;8.30;99.90;;;;;;5060281;28;20034;-73
2021/12/10 12:26:27;;;;;;;6.80;3.13;;;8.20;99.90;;;;;;5045318;28;20056;-70
2021/12/10 12:29:02;;;;;;;7.63;3.28;;;7.90;99.90;;;;;;5045643;28;20079;-71
2021/12/10 12:31:31;;;;;;;8.50;3.50;;;7.70;99.90;;;;;;5046832;28;20061;-71
2021/12/10 12:33:59;;;;;;;8.82;3.58;;;7.50;99.90;;;;;;5045944;28;20049;-74
2021/12/10 12:36:38;;;;;;;6.85;3.10;;;7.40;99.90;;;;;;5044669;28;20132;-71
2021/12/10 12:39:13;;;;;;;5.35;3.10;;;7.50;99.90;;;;;;5048759;28;20120;-74
2021/12/10 12:41:47;;;;;;;7.88;3.20;;;7.60;99.90;;;;;;5041217;28;20532;-72
2021/12/10 12:44:19;;;;;;;8.65;3.58;;;7.70;99.90;;;;;;5046453;28;20056;-71
2021/12/10 12:47:04;;;;;;;7.00;3.28;;;7.80;99.90;;;;;;5060701;28;20076;-71
2021/12/10 12:50:01;;;;;;;7.85;3.30;;;7.90;99.90;;;;;;5052826;28;20120;-72
2021/12/10 12:52:46;;;;;;;9.10;3.30;;;7.90;99.90;;;;;;5058517;28;20049;-72
2021/12/10 12:55:42;;;;;;;9.10;3.70;;;7.90;99.90;;;;;;5047343;28;20052;-72
2021/12/10 12:58:11;;;;;;;8.07;3.42;;;7.90;99.90;;;;;;5045350;28;20068;-72
2021/12/10 13:00:49;;;;;;;9.52;3.30;;;7.80;99.90;;;;;;5043481;28;20127;-71
2021/12/10 13:03:36;;;;;;;7.18;2.88;;;7.60;99.90;;;;;;5046094;28;20057;-72
2021/12/10 13:06:10;;;;;;;9.27;3.20;;;7.40;99.90;;;;;;5045612;28;20049;-71
2021/12/10 13:08:39;;;;;;;7.90;3.45;;;7.20;99.90;;;;;;5045781;28;20041;-71